Time;durP1;ratioP1;P1;durP2;ratioP2;P2;SDS_P1;SDS_P2;PMS_P1;PMS_P2;Temp;Humidity;BMP_temperature;BMP_pressure;BME280_temperature;BME280_humidity;BME280_pressure;Samples;Min_cycle;Max_cycle;Signal;HPM_P1;HPM_P2
2021/12/17 00:00:32;;;;;;;11.40;9.83;;;;;;;3.70;82.75;98416.06;5041251;28;20218;-70
2021/12/17 00:08:23;;;;;;;11.70;10.53;;;;;;;3.66;83.49;98417.94;5022514;28;20272;-70
2021/12/17 00:10:52;;;;;;;11.50;10.40;;;;;;;3.63;83.54;98415.44;5024777;28;20214;-71
2021/12/17 00:13:19;;;;;;;11.70;10.60;;;;;;;3.70;83.52;98410.84;5029624;28;20200;-69
2021/12/17 00:15:46;;;;;;;11.03;9.93;;;;;;;3.68;83.48;98408.31;5040748;28;20230;-72
2021/12/17 00:18:18;;;;;;;11.83;10.63;;;;;;;3.69;83.52;98409.97;5036152;28;20215;-69
2021/12/17 00:40:13;;;;;;;11.70;10.60;;;;;;;3.66;83.68;98410.09;5035349;28;20215;-71
2021/12/17 00:40:27;;;;;;;12.73;11.37;;;;;;;3.61;84.01;98401.59;5028865;28;20195;-70
2021/12/17 00:48:35;;;;;;;12.20;11.00;;;;;;;3.66;84.40;98412.72;5019785;28;20222;-71
2021/12/17 00:53:51;;;;;;;12.27;11.07;;;;;;;3.66;84.20;98411.84;5035468;28;20257;-70
2021/12/17 00:56:17;;;;;;;12.80;11.53;;;;;;;3.71;83.44;98416.03;5035704;28;20325;-71
2021/12/17 00:58:44;;;;;;;12.13;10.93;;;;;;;3.67;83.80;98418.81;5035583;28;20212;-69
2021/12/17 01:01:10;;;;;;;12.17;10.93;;;;;;;3.65;84.31;98421.47;5019917;28;20628;-71
2021/12/17 01:03:37;;;;;;;13.50;12.10;;;;;;;3.66;84.26;98422.31;5028146;28;20216;-70
2021/12/17 01:06:04;;;;;;;12.43;11.13;;;;;;;3.65;84.08;98424.09;5030074;28;20712;-70
2021/12/17 01:08:30;;;;;;;12.97;11.67;;;;;;;3.67;84.33;98416.19;5030650;28;20216;-70
2021/12/17 01:10:58;;;;;;;12.90;11.60;;;;;;;3.70;84.01;98432.63;5025396;28;20204;-71
2021/12/17 01:13:25;;;;;;;12.33;11.13;;;;;;;3.70;83.83;98416.06;5032343;28;20219;-71
2021/12/17 01:15:52;;;;;;;13.27;11.97;;;;;;;3.65;84.14;98418.03;5030417;28;20555;-70
2021/12/17 01:18:21;;;;;;;12.20;11.03;;;;;;;3.62;83.78;98433.81;5034417;28;20198;-71
2021/12/17 01:21:08;;;;;;;13.00;11.60;;;;;;;3.62;84.01;98423.34;5035953;28;20222;-71
2021/12/17 01:38:03;;;;;;;12.97;11.63;;;;;;;3.55;84.78;98417.50;5034090;28;20206;-72
2021/12/17 01:40:55;;;;;;;13.10;11.80;;;;;;;3.56;84.55;98403.50;5034467;28;20202;-71
2021/12/17 01:43:23;;;;;;;12.77;11.53;;;;;;;3.55;84.68;98407.03;5027551;28;20198;-70
2021/12/17 01:45:50;;;;;;;14.43;13.00;;;;;;;3.58;84.65;98400.84;5030540;28;20513;-69
2021/12/17 01:48:22;;;;;;;13.10;11.80;;;;;;;3.62;83.95;98398.03;5033273;28;20214;-69
2021/12/17 01:56:31;;;;;;;13.57;12.17;;;;;;;3.59;84.98;98392.06;5044896;28;20272;-71
2021/12/17 02:01:44;;;;;;;12.90;11.60;;;;;;;3.62;84.45;98387.56;5021739;28;20269;-70
2021/12/17 02:04:10;;;;;;;13.27;12.07;;;;;;;3.56;84.58;98387.81;5029029;28;20204;-70
2021/12/17 02:06:38;;;;;;;13.20;11.70;;;;;;;3.56;84.54;98393.06;5030986;28;20238;-70
2021/12/17 02:09:14;;;;;;;14.80;13.30;;;;;;;3.51;84.99;98384.50;5033729;28;20205;-72
2021/12/17 02:20:40;;;;;;;13.67;12.27;;;;;;;3.46;85.10;98381.22;5024338;28;20674;-73
2021/12/17 02:28:41;;;;;;;13.23;11.83;;;;;;;3.49;85.34;98374.13;5020963;28;20206;-71
2021/12/17 02:28:56;;;;;;;14.17;12.43;;;;;;;3.43;84.93;98386.56;5028268;28;20659;-73
2021/12/17 02:31:28;;;;;;;14.17;12.77;;;;;;;3.44;84.74;98375.19;5028496;28;20202;-73
2021/12/17 02:33:56;;;;;;;14.60;12.70;;;;;;;3.43;85.21;98371.75;5042877;28;20204;-71
2021/12/17 02:36:27;;;;;;;14.03;12.57;;;;;;;3.39;85.17;98364.91;5028906;28;20634;-72
2021/12/17 02:39:05;;;;;;;13.80;12.40;;;;;;;3.41;85.02;98364.84;5033055;28;20210;-72
2021/12/17 02:47:00;;;;;;;13.97;12.47;;;;;;;3.38;85.08;98363.19;5030046;28;20610;-69
2021/12/17 02:49:28;;;;;;;14.73;13.27;;;;;;;3.30;85.56;98359.16;5017598;28;20632;-72
2021/12/17 02:51:56;;;;;;;15.47;13.83;;;;;;;3.31;85.37;98353.03;5030645;28;20210;-70
2021/12/17 02:54:22;;;;;;;14.93;13.33;;;;;;;3.26;85.80;98362.81;5034322;28;20202;-71
2021/12/17 02:56:49;;;;;;;15.50;13.80;;;;;;;3.27;85.68;98359.28;5034322;28;20238;-71
2021/12/17 02:59:15;;;;;;;15.70;14.00;;;;;;;3.30;85.76;98359.16;5030567;28;20209;-69
2021/12/17 03:01:45;;;;;;;15.10;13.50;;;;;;;3.28;85.74;98355.75;5031530;28;20638;-70
2021/12/17 03:04:12;;;;;;;16.57;14.37;;;;;;;3.30;86.08;98364.38;5027496;28;20309;-72
2021/12/17 03:06:40;;;;;;;15.97;14.07;;;;;;;3.26;85.95;98352.34;5033634;28;20241;-73
2021/12/17 03:09:08;;;;;;;15.37;13.30;;;;;;;3.27;85.83;98360.13;5027753;28;20646;-70
2021/12/17 03:11:35;;;;;;;16.30;14.00;;;;;;;3.25;86.19;98355.88;5036548;28;20210;-71
2021/12/17 03:14:01;;;;;;;15.57;13.87;;;;;;;3.26;86.01;98347.13;5028737;28;20218;-72
2021/12/17 03:16:33;;;;;;;16.30;14.57;;;;;;;3.23;86.42;98331.53;5037495;28;20321;-72
2021/12/17 03:19:08;;;;;;;15.57;13.83;;;;;;;3.24;86.52;98330.63;5029523;28;20690;-71
2021/12/17 03:24:22;;;;;;;15.73;14.00;;;;;;;3.29;86.44;98336.56;5026210;28;20257;-71
2021/12/17 03:26:49;;;;;;;16.00;14.30;;;;;;;3.27;86.45;98333.13;5017986;28;20521;-71
2021/12/17 03:29:16;;;;;;;16.00;13.87;;;;;;;3.28;86.57;98340.06;5017273;28;20207;-72
2021/12/17 03:31:42;;;;;;;16.97;15.17;;;;;;;3.30;86.45;98348.69;5020933;28;20207;-72
2021/12/17 03:34:18;;;;;;;17.03;14.30;;;;;;;3.22;86.54;98348.16;5028466;28;20203;-72
2021/12/17 03:36:47;;;;;;;15.90;14.20;;;;;;;3.24;86.70;98349.78;5031202;28;20683;-72
2021/12/17 03:39:13;;;;;;;15.93;14.23;;;;;;;3.26;86.93;98353.19;5027785;28;20537;-72
2021/12/17 03:41:48;;;;;;;16.50;14.70;;;;;;;3.26;86.74;98355.78;5033887;28;20207;-72
2021/12/17 03:44:14;;;;;;;16.93;14.13;;;;;;;3.26;87.04;98352.34;5028483;28;20205;-72
2021/12/17 03:46:41;;;;;;;15.33;13.73;;;;;;;3.22;86.75;98356.00;5027409;28;20203;-71
2021/12/17 03:49:07;;;;;;;16.67;14.27;;;;;;;3.25;86.41;98356.72;5037627;28;20634;-71
2021/12/17 03:51:46;;;;;;;15.03;13.23;;;;;;;3.24;86.96;98354.16;5024184;28;20234;-72
2021/12/17 03:54:12;;;;;;;16.27;14.43;;;;;;;3.27;86.92;98351.44;5037488;28;20211;-72
2021/12/17 03:56:39;;;;;;;16.03;14.33;;;;;;;3.25;86.99;98355.88;5037538;28;20524;-72
2021/12/17 03:59:10;;;;;;;15.57;13.77;;;;;;;3.27;86.90;98359.28;5037497;28;20537;-71
2021/12/17 04:01:37;;;;;;;15.80;13.97;;;;;;;3.25;86.97;98355.88;5036882;28;20220;-72
2021/12/17 04:04:03;;;;;;;15.67;13.73;;;;;;;3.32;87.11;98359.97;5036003;28;20203;-71
2021/12/17 04:06:30;;;;;;;15.00;13.47;;;;;;;3.33;86.79;98348.59;5028886;28;20239;-70
2021/12/17 04:08:56;;;;;;;16.03;13.20;;;;;;;3.33;86.81;98352.03;5028318;28;20654;-72
2021/12/17 04:11:23;;;;;;;16.77;14.73;;;;;;;3.37;86.68;98351.03;5035742;28;20295;-71
2021/12/17 04:13:54;;;;;;;15.63;13.10;;;;;;;3.39;86.26;98356.22;5029729;28;20277;-69
2021/12/17 04:16:25;;;;;;;14.97;12.97;;;;;;;3.43;86.16;98344.72;5035921;28;20223;-71
2021/12/17 04:18:52;;;;;;;15.27;13.50;;;;;;;3.53;85.86;98351.31;5029185;28;20275;-72
2021/12/17 04:21:19;;;;;;;16.13;13.30;;;;;;;3.53;85.88;98345.22;5029710;28;20211;-71
2021/12/17 04:23:48;;;;;;;14.13;12.63;;;;;;;3.54;86.18;98352.16;5024278;28;20200;-71
2021/12/17 04:26:15;;;;;;;14.70;13.10;;;;;;;3.48;85.83;98354.09;5034296;28;20199;-72
2021/12/17 04:28:44;;;;;;;15.63;13.67;;;;;;;3.46;85.56;98355.06;5030139;28;20203;-72
2021/12/17 04:31:11;;;;;;;15.67;13.13;;;;;;;3.53;85.40;98351.31;5036861;28;20273;-71
2021/12/17 04:33:41;;;;;;;15.23;13.63;;;;;;;3.53;85.70;98346.09;5031485;28;20207;-73
2021/12/17 04:36:08;;;;;;;14.70;13.20;;;;;;;3.51;85.82;98337.44;5036040;28;20250;-71
2021/12/17 04:38:35;;;;;;;14.77;13.03;;;;;;;3.56;85.80;98340.72;5035509;28;20309;-70
2021/12/17 04:41:33;;;;;;;14.57;12.97;;;;;;;3.57;85.90;98341.59;5028002;28;20211;-71
2021/12/17 04:43:59;;;;;;;14.23;12.70;;;;;;;3.55;85.82;98349.47;5038385;28;20271;-72
2021/12/17 04:46:32;;;;;;;14.93;13.33;;;;;;;3.60;85.77;98355.41;5031250;28;20226;-72
2021/12/17 04:57:26;;;;;;;16.40;13.77;;;;;;;3.62;85.97;98363.19;5028981;28;20246;-72
2021/12/17 04:59:53;;;;;;;16.40;13.73;;;;;;;3.66;85.78;98368.25;5027588;28;20210;-71
2021/12/17 05:02:20;;;;;;;17.90;14.03;;;;;;;3.64;86.14;98372.69;5036220;28;20235;-72
2021/12/17 05:04:47;;;;;;;15.07;13.33;;;;;;;3.65;86.26;98370.94;5034354;28;20209;-72
2021/12/17 05:07:14;;;;;;;15.33;13.17;;;;;;;3.68;86.40;98371.66;5049013;28;20202;-72
2021/12/17 05:09:48;;;;;;;15.40;13.77;;;;;;;3.71;86.43;98366.31;5037598;28;20626;-72
2021/12/17 05:20:34;;;;;;;16.00;13.80;;;;;;;3.74;86.65;98381.88;5035827;28;20214;-72
2021/12/17 05:23:01;;;;;;;15.67;12.90;;;;;;;3.78;86.49;98383.47;5035202;28;20218;-72
2021/12/17 05:25:29;;;;;;;15.67;13.87;;;;;;;3.74;86.57;98387.13;5030177;28;20212;-73
2021/12/17 05:28:00;;;;;;;14.97;12.93;;;;;;;3.76;86.60;98387.03;5032978;28;20200;-70
2021/12/17 05:30:26;;;;;;;14.37;12.50;;;;;;;3.69;86.88;98391.66;5024748;28;20552;-71
2021/12/17 05:32:53;;;;;;;16.77;13.90;;;;;;;3.68;86.96;98392.59;5034020;28;20641;-72
2021/12/17 05:35:20;;;;;;;14.83;13.10;;;;;;;3.75;86.88;98396.69;5029301;28;20650;-71
2021/12/17 05:37:47;;;;;;;15.00;13.23;;;;;;;3.73;87.00;98389.78;5036615;28;20225;-72
2021/12/17 05:40:14;;;;;;;15.47;12.97;;;;;;;3.79;86.50;98400.88;5034794;28;20531;-73
2021/12/17 05:42:42;;;;;;;14.27;12.67;;;;;;;3.75;87.23;98398.44;5036147;28;20210;-71
2021/12/17 05:45:21;;;;;;;13.93;12.13;;;;;;;3.74;86.66;98397.59;5026771;28;20215;-70
2021/12/17 05:47:48;;;;;;;13.50;11.83;;;;;;;3.78;86.59;98417.50;5039822;28;20213;-71
2021/12/17 05:50:15;;;;;;;13.53;11.73;;;;;;;3.82;86.52;98413.84;5034347;28;20222;-72
2021/12/17 05:52:41;;;;;;;13.20;11.80;;;;;;;3.86;86.77;98406.75;5027840;28;20204;-72
2021/12/17 05:55:10;;;;;;;11.90;10.40;;;;;;;3.83;85.82;98428.63;5037056;28;20226;-72
2021/12/17 05:57:36;;;;;;;13.40;11.33;;;;;;;3.87;85.89;98419.75;5046877;28;20223;-71
2021/12/17 06:00:04;;;;;;;12.63;11.03;;;;;;;3.83;86.02;98423.41;5054730;28;20210;-71
2021/12/17 06:02:31;;;;;;;13.87;11.53;;;;;;;3.82;86.26;98420.84;5060663;28;20215;-72
2021/12/17 06:04:57;;;;;;;12.40;11.10;;;;;;;3.87;86.11;98417.13;5038145;28;20236;-71
2021/12/17 06:07:27;;;;;;;12.33;10.57;;;;;;;3.87;85.73;98414.53;5018043;28;20211;-71
2021/12/17 06:09:57;;;;;;;12.33;10.97;;;;;;;3.89;85.56;98422.31;5023198;28;20217;-71
2021/12/17 06:12:25;;;;;;;12.57;10.67;;;;;;;3.91;85.53;98416.13;5034759;28;20214;-71
2021/12/17 06:14:51;;;;;;;13.87;11.37;;;;;;;3.91;85.60;98415.25;5025090;28;20288;-69
2021/12/17 06:17:18;;;;;;;11.80;10.43;;;;;;;3.92;85.60;98417.81;5022200;28;20258;-72
2021/12/17 06:19:44;;;;;;;12.53;11.23;;;;;;;3.90;85.61;98411.78;5034321;28;20211;-71
2021/12/17 06:22:11;;;;;;;12.83;11.07;;;;;;;3.92;85.57;98409.97;5034003;28;20203;-71
2021/12/17 06:24:37;;;;;;;12.03;10.70;;;;;;;3.91;85.37;98410.03;5030131;28;20203;-71
2021/12/17 06:27:04;;;;;;;12.67;11.37;;;;;;;3.93;85.57;98408.22;5035254;28;20221;-71
2021/12/17 06:29:32;;;;;;;13.97;11.23;;;;;;;3.89;85.52;98420.56;5021168;28;20207;-72
2021/12/17 06:31:58;;;;;;;12.53;11.23;;;;;;;3.91;85.38;98416.13;5028153;28;20591;-70
2021/12/17 06:34:25;;;;;;;13.97;12.03;;;;;;;3.93;85.78;98410.84;5031539;28;20206;-72
2021/12/17 06:36:51;;;;;;;14.00;11.27;;;;;;;4.01;85.28;98419.22;5028719;28;20230;-71
2021/12/17 06:39:18;;;;;;;12.60;10.60;;;;;;;4.06;85.02;98419.91;5032645;28;20207;-71
2021/12/17 06:41:44;;;;;;;13.47;11.30;;;;;;;4.01;84.90;98433.16;5025418;28;20206;-71
2021/12/17 06:44:14;;;;;;;11.80;10.57;;;;;;;4.04;85.28;98426.13;5030764;28;20203;-71
2021/12/17 06:46:54;;;;;;;12.77;11.47;;;;;;;4.12;84.63;98442.38;5030746;28;20257;-71
2021/12/17 06:49:27;;;;;;;12.93;11.63;;;;;;;4.09;84.79;98432.00;5022341;28;20511;-70
2021/12/17 06:54:48;;;;;;;12.57;11.23;;;;;;;4.01;85.01;98443.63;5034951;28;20269;-72
2021/12/17 06:58:03;;;;;;;14.27;11.50;;;;;;;3.97;85.23;98438.56;5031854;28;20618;-71
2021/12/17 07:00:36;;;;;;;11.13;10.03;;;;;;;3.93;85.06;98423.91;5028148;28;20282;-70
2021/12/17 07:06:01;;;;;;;12.63;11.10;;;;;;;4.11;84.82;98417.13;5037003;28;20325;-71
2021/12/17 07:11:22;;;;;;;13.83;12.43;;;;;;;4.01;85.38;98430.53;5027541;28;20363;-72
2021/12/17 07:22:04;;;;;;;12.67;11.27;;;;;;;4.01;85.30;98437.53;5040524;28;20214;-72
2021/12/17 07:33:06;;;;;;;16.27;13.77;;;;;;;3.98;85.47;98454.22;5041052;28;20206;-72
2021/12/17 07:35:49;;;;;;;13.43;11.50;;;;;;;3.99;86.36;98458.56;5027591;28;20215;-71
2021/12/17 07:41:00;;;;;;;14.10;11.40;;;;;;;4.32;86.43;98469.47;5025661;28;20219;-73
2021/12/17 07:43:30;;;;;;;18.83;12.17;;;;;;;4.53;85.80;98467.78;5021139;28;20211;-71
2021/12/17 07:45:57;;;;;;;20.70;12.23;;;;;;;4.63;87.30;98471.75;5033985;28;20226;-70
2021/12/17 07:48:24;;;;;;;13.83;11.77;;;;;;;4.63;84.71;98474.38;5047577;28;20215;-72
2021/12/17 07:50:52;;;;;;;12.63;11.43;;;;;;;4.49;84.58;98469.69;5038277;28;20230;-69
2021/12/17 07:53:19;;;;;;;15.67;11.97;;;;;;;4.31;84.24;98472.16;5031900;28;20226;-71
2021/12/17 07:55:46;;;;;;;13.23;11.83;;;;;;;4.28;84.56;98480.16;5038362;28;20204;-70
2021/12/17 07:58:12;;;;;;;15.83;14.13;;;;;;;4.23;84.89;98469.00;5035589;28;20228;-70
2021/12/17 08:00:39;;;;;;;12.90;11.07;;;;;;;4.31;84.61;98466.94;5026379;28;20214;-69
2021/12/17 08:03:06;;;;;;;13.53;11.63;;;;;;;4.28;84.90;98464.44;5019579;28;20208;-70
2021/12/17 08:05:32;;;;;;;13.87;12.30;;;;;;;4.30;85.04;98465.22;5034038;28;20345;-69
2021/12/17 08:08:00;;;;;;;13.57;11.63;;;;;;;4.33;84.85;98465.09;5034454;28;20218;-71
2021/12/17 08:10:27;;;;;;;12.63;10.97;;;;;;;4.34;84.26;98467.66;5044963;28;20636;-71
2021/12/17 08:12:55;;;;;;;12.10;10.67;;;;;;;4.19;84.88;98460.41;5034084;28;20200;-71
2021/12/17 08:15:29;;;;;;;13.50;11.83;;;;;;;4.19;85.14;98462.16;5032409;28;20265;-71
2021/12/17 08:18:19;;;;;;;14.20;11.97;;;;;;;4.26;85.08;98463.63;5020172;28;20209;-70
2021/12/17 08:26:19;;;;;;;14.77;12.57;;;;;;;4.14;84.96;98474.59;5055871;28;20183;-70
2021/12/17 08:28:56;;;;;;;14.30;12.30;;;;;;;4.27;84.95;98475.81;5039270;28;20189;-70
2021/12/17 08:31:23;;;;;;;12.53;11.23;;;;;;;4.31;84.59;98474.78;5034960;28;20278;-70
2021/12/17 08:33:49;;;;;;;12.73;11.30;;;;;;;4.32;84.79;98476.50;5043716;28;20210;-69
2021/12/17 08:36:16;;;;;;;13.80;11.40;;;;;;;4.30;84.78;98475.69;5037684;28;20196;-71
2021/12/17 08:38:44;;;;;;;12.70;11.37;;;;;;;4.37;84.69;98474.53;5032890;28;20250;-70
2021/12/17 08:41:11;;;;;;;13.20;10.93;;;;;;;4.29;84.89;98476.59;5037367;28;20661;-71
2021/12/17 08:43:37;;;;;;;12.30;11.00;;;;;;;4.27;85.42;98473.19;5033637;28;20653;-70
2021/12/17 08:46:04;;;;;;;11.20;10.10;;;;;;;4.33;84.67;98483.41;5037238;28;20203;-69
2021/12/17 08:48:31;;;;;;;11.57;10.37;;;;;;;4.31;84.98;98488.75;5039260;28;20219;-70
2021/12/17 08:50:58;;;;;;;12.60;10.87;;;;;;;4.22;85.32;98482.97;5033399;28;20215;-72
2021/12/17 08:53:24;;;;;;;11.77;10.57;;;;;;;4.29;85.21;98489.69;5037429;28;20592;-69
2021/12/17 08:55:53;;;;;;;13.87;11.93;;;;;;;4.26;84.94;98481.97;5035537;28;20509;-71
2021/12/17 08:58:19;;;;;;;13.03;10.83;;;;;;;4.25;85.58;98483.72;5037013;28;20239;-69
2021/12/17 09:00:47;;;;;;;12.70;11.20;;;;;;;4.23;85.38;98488.19;5033947;28;20207;-71
2021/12/17 09:03:13;;;;;;;12.37;11.07;;;;;;;4.33;85.22;98492.13;5017340;28;20215;-69
2021/12/17 09:05:42;;;;;;;12.33;11.03;;;;;;;4.28;85.46;98490.63;5027770;28;20595;-71
2021/12/17 09:08:10;;;;;;;12.73;11.43;;;;;;;4.35;84.96;98494.72;5026571;28;20223;-71
2021/12/17 09:10:38;;;;;;;12.90;11.60;;;;;;;4.47;84.64;98502.06;5036582;28;20238;-71
2021/12/17 09:13:07;;;;;;;13.97;12.20;;;;;;;4.48;84.17;98502.03;5036974;28;20208;-71
2021/12/17 09:15:34;;;;;;;15.93;11.67;;;;;;;4.54;84.32;98503.53;5037118;28;20298;-70
2021/12/17 09:18:00;;;;;;;12.73;11.33;;;;;;;4.43;83.93;98503.97;5029720;28;20228;-70
2021/12/17 09:20:27;;;;;;;14.57;12.67;;;;;;;4.48;83.47;98503.78;5036286;28;20210;-70
2021/12/17 09:22:53;;;;;;;12.40;11.10;;;;;;;4.48;83.75;98507.25;5037066;28;20211;-71
2021/12/17 09:25:20;;;;;;;13.40;11.37;;;;;;;4.55;83.96;98513.13;5036264;28;20646;-70
2021/12/17 09:27:46;;;;;;;13.13;11.73;;;;;;;4.64;83.04;98512.72;5030550;28;20200;-70
2021/12/17 09:30:16;;;;;;;12.80;11.17;;;;;;;4.60;82.60;98516.41;5036180;28;20212;-70
2021/12/17 09:32:43;;;;;;;12.43;11.13;;;;;;;4.60;82.95;98516.41;5036620;28;20204;-70
2021/12/17 09:35:11;;;;;;;12.43;11.13;;;;;;;4.58;82.39;98522.59;5036175;28;20531;-70
2021/12/17 09:37:38;;;;;;;13.67;12.20;;;;;;;4.58;82.35;98518.22;5026885;28;20225;-70
2021/12/17 09:40:07;;;;;;;13.80;11.80;;;;;;;4.55;82.33;98513.13;5032990;28;20208;-70
2021/12/17 09:42:34;;;;;;;14.87;13.37;;;;;;;4.41;82.96;98523.28;5034993;28;20196;-70
2021/12/17 09:45:01;;;;;;;12.57;11.23;;;;;;;4.38;82.83;98515.53;5032196;28;20616;-70
2021/12/17 09:47:29;;;;;;;15.47;12.20;;;;;;;4.41;83.08;98525.91;5039865;28;20519;-71
2021/12/17 09:49:56;;;;;;;19.63;16.57;;;;;;;4.39;83.09;98527.75;5036840;28;20207;-70
2021/12/17 09:52:23;;;;;;;14.23;12.23;;;;;;;4.48;82.37;98527.38;5035946;28;20216;-71
2021/12/17 09:54:50;;;;;;;12.47;11.17;;;;;;;4.48;82.86;98530.00;5030113;28;20500;-70
2021/12/17 09:57:17;;;;;;;13.07;11.67;;;;;;;4.45;82.32;98530.13;5035198;28;20594;-69
2021/12/17 09:59:44;;;;;;;13.37;11.03;;;;;;;4.49;82.43;98527.31;5035734;28;20212;-70
2021/12/17 10:02:10;;;;;;;14.23;12.73;;;;;;;4.44;82.58;98533.63;5036162;28;20204;-69
2021/12/17 10:04:42;;;;;;;12.13;10.83;;;;;;;4.60;82.09;98533.91;5030538;28;20281;-70
2021/12/17 10:07:23;;;;;;;12.90;11.53;;;;;;;4.54;82.29;98521.88;5035684;28;20203;-70
2021/12/17 10:09:50;;;;;;;13.47;12.07;;;;;;;4.65;81.65;98530.16;5035574;28;20216;-71
2021/12/17 10:12:17;;;;;;;13.10;11.73;;;;;;;4.66;80.80;98536.28;5034417;28;20199;-69
2021/12/17 10:14:58;;;;;;;12.87;11.57;;;;;;;4.62;80.68;98530.31;5030087;28;20206;-71
2021/12/17 10:17:25;;;;;;;12.73;11.33;;;;;;;4.63;81.18;98528.53;5035765;28;20238;-70
2021/12/17 10:19:54;;;;;;;14.77;11.80;;;;;;;4.63;81.05;98532.00;5034684;28;20211;-70
2021/12/17 10:22:22;;;;;;;12.30;11.07;;;;;;;4.67;81.74;98517.03;5035321;28;20208;-70
2021/12/17 10:24:57;;;;;;;12.40;11.10;;;;;;;4.48;82.29;98530.84;5031454;28;20207;-71
2021/12/17 10:27:26;;;;;;;12.43;10.90;;;;;;;4.41;82.46;98523.28;5023221;28;20210;-71
2021/12/17 10:29:54;;;;;;;12.87;11.03;;;;;;;4.57;82.14;98524.38;5035589;28;20212;-70
2021/12/17 10:32:22;;;;;;;12.00;10.60;;;;;;;4.67;82.48;98523.13;5035996;28;20204;-69
2021/12/17 10:35:08;;;;;;;13.63;10.77;;;;;;;4.64;82.41;98525.84;5034136;28;20216;-72
2021/12/17 10:37:37;;;;;;;12.93;10.97;;;;;;;4.72;82.00;98528.16;5027510;28;20226;-69
2021/12/17 10:40:21;;;;;;;12.13;10.87;;;;;;;4.61;82.13;98522.47;5035320;28;20265;-71
2021/12/17 10:42:57;;;;;;;11.67;10.47;;;;;;;4.62;82.96;98519.81;5034627;28;20200;-71
2021/12/17 10:45:28;;;;;;;12.20;10.63;;;;;;;4.62;83.46;98514.56;5025404;28;20207;-71
2021/12/17 10:48:02;;;;;;;11.50;10.30;;;;;;;4.70;83.37;98506.41;5044134;28;20200;-71
2021/12/17 10:50:30;;;;;;;12.70;10.13;;;;;;;4.61;83.56;98512.00;5036485;28;20215;-71
2021/12/17 10:52:57;;;;;;;10.90;9.80;;;;;;;4.64;83.86;98511.91;5028237;28;20216;-70
2021/12/17 10:55:25;;;;;;;12.20;10.13;;;;;;;4.72;83.44;98512.44;5017910;28;20208;-72
2021/12/17 10:57:51;;;;;;;10.67;8.93;;;;;;;4.62;83.57;98504.09;5023551;28;20234;-71
2021/12/17 11:00:20;;;;;;;10.67;9.57;;;;;;;4.65;83.69;98506.59;5036794;28;20224;-71
2021/12/17 11:02:48;;;;;;;11.67;10.47;;;;;;;4.61;83.21;98507.63;5038545;28;20208;-70
2021/12/17 11:05:15;;;;;;;11.03;9.90;;;;;;;4.58;83.96;98505.13;5033176;28;20247;-71
2021/12/17 11:07:46;;;;;;;10.43;9.40;;;;;;;4.42;83.61;98504.03;5033823;28;20237;-71
2021/12/17 11:10:15;;;;;;;10.77;9.67;;;;;;;4.54;83.94;98493.06;5030837;28;20214;-72
2021/12/17 11:12:44;;;;;;;10.20;9.20;;;;;;;4.55;83.85;98492.16;5029497;28;20205;-72
2021/12/17 11:15:18;;;;;;;10.93;9.77;;;;;;;4.66;83.30;98492.59;5033771;28;20207;-70
2021/12/17 11:17:46;;;;;;;11.53;9.87;;;;;;;4.71;83.03;98482.75;5036842;28;20214;-71
2021/12/17 11:20:15;;;;;;;10.50;9.27;;;;;;;4.63;83.30;98481.38;5028482;28;20204;-71
2021/12/17 11:22:44;;;;;;;10.53;9.43;;;;;;;4.75;83.24;98479.09;5033811;28;20208;-70
2021/12/17 11:25:12;;;;;;;11.83;9.77;;;;;;;4.62;83.04;98477.88;5040318;28;20219;-70
2021/12/17 11:27:39;;;;;;;11.20;10.00;;;;;;;4.66;84.10;98476.84;5039477;28;20215;-70
2021/12/17 11:30:08;;;;;;;10.97;9.47;;;;;;;4.82;83.62;98480.53;5035353;28;20219;-71
2021/12/17 11:32:35;;;;;;;11.67;10.43;;;;;;;4.78;83.09;98484.22;5040111;28;20204;-71
2021/12/17 11:35:03;;;;;;;11.37;10.07;;;;;;;4.85;83.52;98479.59;5025813;28;20242;-71
2021/12/17 11:37:30;;;;;;;11.60;10.07;;;;;;;4.75;83.14;98471.22;5042350;28;20208;-71
2021/12/17 11:40:00;;;;;;;12.40;10.40;;;;;;;4.72;83.24;98468.75;5070362;28;20223;-71
2021/12/17 11:42:39;;;;;;;13.40;9.60;;;;;;;4.76;82.98;98470.31;5075086;28;20265;-71
2021/12/17 11:45:25;;;;;;;10.30;9.10;;;;;;;4.86;82.98;98473.41;5045273;28;20191;-70
2021/12/17 11:47:53;;;;;;;9.70;8.70;;;;;;;4.96;83.34;98467.72;5055997;28;20199;-72
2021/12/17 11:50:20;;;;;;;10.80;9.70;;;;;;;4.92;82.61;98471.38;5052313;28;20199;-73
2021/12/17 11:52:48;;;;;;;10.27;9.03;;;;;;;5.01;83.04;98464.91;5059206;28;20194;-72
2021/12/17 11:55:34;;;;;;;10.73;9.57;;;;;;;4.98;83.09;98463.28;5059627;28;20211;-72
2021/12/17 11:58:05;;;;;;;11.23;8.83;;;;;;;5.01;83.20;98470.16;5043302;28;20246;-72
2021/12/17 12:00:35;;;;;;;10.23;9.23;;;;;;;5.07;82.63;98459.41;5042558;28;20265;-72
2021/12/17 12:03:20;;;;;;;10.50;9.30;;;;;;;5.12;82.33;98467.09;5045524;28;20204;-71
2021/12/17 12:05:48;;;;;;;10.57;9.43;;;;;;;5.06;82.29;98455.09;5059225;28;20232;-72
2021/12/17 12:08:36;;;;;;;10.93;9.83;;;;;;;5.09;82.89;98462.84;5039506;28;20270;-73
2021/12/17 12:11:09;;;;;;;10.73;9.60;;;;;;;5.14;81.67;98449.50;5038986;28;20212;-73
2021/12/17 12:13:41;;;;;;;16.90;10.10;;;;;;;5.09;83.34;98454.09;5025374;28;20209;-73
2021/12/17 12:16:09;;;;;;;11.13;9.93;;;;;;;4.99;81.98;98451.84;5035047;28;20701;-74
2021/12/17 12:18:41;;;;;;;11.03;8.93;;;;;;;5.08;82.27;98453.25;5033482;28;20243;-73
2021/12/17 12:21:07;;;;;;;11.87;9.43;;;;;;;5.05;81.89;98449.91;5037679;28;20215;-74
2021/12/17 12:23:46;;;;;;;11.23;10.13;;;;;;;5.12;81.65;98456.59;5037712;28;20212;-72
2021/12/17 12:26:25;;;;;;;12.33;10.10;;;;;;;5.07;82.07;98454.16;5034722;28;20196;-72
2021/12/17 12:29:00;;;;;;;10.50;9.43;;;;;;;5.08;81.85;98455.88;5036884;28;20577;-73
2021/12/17 12:31:55;;;;;;;13.87;10.73;;;;;;;5.09;81.77;98454.09;5037348;28;20217;-71
2021/12/17 12:34:27;;;;;;;12.77;10.47;;;;;;;5.09;81.24;98457.59;5039221;28;20218;-72
2021/12/17 12:36:56;;;;;;;12.83;11.07;;;;;;;5.07;81.40;98458.53;5036229;28;20275;-71
2021/12/17 12:39:25;;;;;;;10.97;9.87;;;;;;;5.19;81.42;98452.78;5034046;28;20555;-72
2021/12/17 12:41:59;;;;;;;11.30;10.07;;;;;;;5.21;80.64;98461.47;5042734;28;20212;-72
2021/12/17 12:45:05;;;;;;;11.73;10.37;;;;;;;5.10;80.91;98459.25;5029767;28;20204;-71
2021/12/17 12:47:55;;;;;;;11.17;10.00;;;;;;;5.05;80.75;98461.25;5036137;28;20609;-70
2021/12/17 12:50:24;;;;;;;11.80;10.60;;;;;;;4.99;81.41;98466.75;5042828;28;20208;-71
2021/12/17 12:52:52;;;;;;;11.27;10.07;;;;;;;5.01;81.00;98464.91;5037982;28;20570;-70
2021/12/17 12:55:22;;;;;;;13.40;10.90;;;;;;;4.90;80.55;98461.88;5027008;28;20563;-71
2021/12/17 12:57:50;;;;;;;13.57;11.63;;;;;;;4.85;80.82;98462.06;5033369;28;20200;-70
2021/12/17 13:00:20;;;;;;;12.30;11.00;;;;;;;4.98;80.88;98458.03;5041917;28;20293;-70
2021/12/17 13:02:51;;;;;;;12.50;11.20;;;;;;;4.98;80.30;98463.28;5037079;28;20208;-71
2021/12/17 13:05:18;;;;;;;13.73;10.60;;;;;;;5.05;80.30;98450.75;5022598;28;20228;-71
2021/12/17 13:07:47;;;;;;;12.40;10.83;;;;;;;5.08;80.21;98452.41;5028106;28;20222;-70
2021/12/17 13:10:15;;;;;;;14.70;10.57;;;;;;;5.01;80.91;98447.41;5040126;28;20210;-71
2021/12/17 13:12:46;;;;;;;11.50;10.20;;;;;;;4.99;80.69;98446.63;5028993;28;20214;-71
2021/12/17 13:15:32;;;;;;;11.63;10.03;;;;;;;5.13;80.14;98446.06;5035571;28;20199;-69
2021/12/17 13:20:59;;;;;;;11.90;10.67;;;;;;;4.89;79.94;98445.28;5036398;28;20202;-70
2021/12/17 13:23:26;;;;;;;11.07;9.90;;;;;;;4.99;80.89;98441.38;5030182;28;20200;-71
2021/12/17 13:26:05;;;;;;;11.03;9.93;;;;;;;5.07;80.79;98442.81;5016128;28;20204;-71
2021/12/17 13:28:46;;;;;;;13.40;10.83;;;;;;;4.95;81.64;98445.06;5026673;28;20211;-70
2021/12/17 13:31:13;;;;;;;12.47;10.43;;;;;;;4.87;81.04;98441.91;5034288;28;20208;-71
2021/12/17 13:33:41;;;;;;;13.10;11.27;;;;;;;4.83;81.11;98445.56;5035816;28;20207;-70
2021/12/17 13:36:12;;;;;;;11.97;10.70;;;;;;;4.88;81.47;98448.00;5036004;28;20230;-71
2021/12/17 13:38:41;;;;;;;12.67;10.87;;;;;;;4.86;81.29;98440.19;5023822;28;20219;-70
2021/12/17 13:41:09;;;;;;;12.87;11.03;;;;;;;4.89;81.82;98437.44;5035341;28;20215;-70
2021/12/17 13:43:40;;;;;;;13.57;10.77;;;;;;;4.90;82.73;98436.53;5035786;28;20207;-71
2021/12/17 13:46:07;;;;;;;13.87;11.70;;;;;;;4.97;81.48;98448.47;5035140;28;20222;-70